Rorketon, Canada
Current Conditions -  °F | °C
As of 10:00 AM on Saturday 22 Nov 2014 (Local Time) from CYBR Reporting Station
Freezing Drizzle Freezing Drizzle  
Wind Chill: 12°   Ceiling: 400
Heat Index: 25°   Visibility: 3mi
Dew Point: 25°   Wind: 15mph
Humidity: 100%   Direction: 80°E
Pressure: 29.54"   Gusts: 23mph
Location:  51.38°N, 99.6°W
Report Text: CYBR 221600Z 08013G20KT 3SM -FZDZ BR OVC004 M04/M04 A2954 RMK ST8 SLP025
Loading
Personal Weather Stations






























Interactive Weather Map New forecast layout! Learn more

10-Day Weather Forecast

Advertisements
Track Severe Weather on mobile